VOI1715 KLAX-MMGL
Flight info
| Callsign | VOI1715 |
|---|---|
| Flight time | 2h 37m |
| Altitude | 35000 |
| Route | PNDAH2 OTAYY DCT TIJ UT4 ANTEL DCT SOUSY DCT AMULA AMULA1B |
| Aircraft | A320/M-SDE3FGHIRWY/LB1 |
Departure
| Time | 2026-04-22 21:56 |
|---|---|
| Airport | Los Angeles International Airport (KLAX) |
Arrival
| Time | 2026-04-23 00:33 |
|---|---|
| Airport | Guadalajara International Airport (MMGL) |
| Time | Latitude | Longitude | Altitude | Speed | Heading |
|---|---|---|---|---|---|
| 2026-04-22 20:57 | 33.94450 | -118.42999 | 96 ft | 0 kts | 83° |
| 2026-04-22 21:37 | 33.94450 | -118.43001 | 95 ft | 2 kts | 83° |
| 2026-04-22 21:37 | 33.94446 | -118.43031 | 94 ft | 4 kts | 79° |
| 2026-04-22 21:37 | 33.94439 | -118.43063 | 96 ft | 4 kts | 70° |
| 2026-04-22 21:37 | 33.94427 | -118.43090 | 96 ft | 4 kts | 40° |
| 2026-04-22 21:38 | 33.94412 | -118.43099 | 96 ft | 1 kts | 353° |
| 2026-04-22 21:38 | 33.94408 | -118.43098 | 95 ft | 1 kts | 353° |
| 2026-04-22 21:41 | 33.94422 | -118.43100 | 95 ft | 6 kts | 353° |
| 2026-04-22 21:42 | 33.94476 | -118.43108 | 96 ft | 8 kts | 353° |
| 2026-04-22 21:42 | 33.94506 | -118.43111 | 97 ft | 0 kts | 356° |
| 2026-04-22 21:44 | 33.94507 | -118.43111 | 97 ft | 0 kts | 356° |
| 2026-04-22 21:44 | 33.94538 | -118.43113 | 98 ft | 9 kts | 356° |
| 2026-04-22 21:44 | 33.94588 | -118.43083 | 100 ft | 8 kts | 59° |
| 2026-04-22 21:44 | 33.94600 | -118.43034 | 99 ft | 10 kts | 80° |
| 2026-04-22 21:45 | 33.94611 | -118.42938 | 99 ft | 12 kts | 87° |
| 2026-04-22 21:45 | 33.94615 | -118.42839 | 99 ft | 14 kts | 91° |
| 2026-04-22 21:45 | 33.94605 | -118.42802 | 99 ft | 14 kts | 123° |
| 2026-04-22 21:45 | 33.94425 | -118.42753 | 95 ft | 19 kts | 172° |
| 2026-04-22 21:46 | 33.94264 | -118.42725 | 95 ft | 24 kts | 173° |
| 2026-04-22 21:46 | 33.94095 | -118.42702 | 96 ft | 25 kts | 173° |
| 2026-04-22 21:46 | 33.93911 | -118.42674 | 97 ft | 26 kts | 172° |
| 2026-04-22 21:46 | 33.93844 | -118.42662 | 95 ft | 8 kts | 172° |
| 2026-04-22 21:47 | 33.93789 | -118.42653 | 96 ft | 9 kts | 172° |
| 2026-04-22 21:47 | 33.93719 | -118.42643 | 97 ft | 11 kts | 177° |
| 2026-04-22 21:47 | 33.93632 | -118.42616 | 95 ft | 14 kts | 136° |
| 2026-04-22 21:47 | 33.93620 | -118.42508 | 96 ft | 13 kts | 86° |
| 2026-04-22 21:48 | 33.93630 | -118.42399 | 98 ft | 13 kts | 82° |
| 2026-04-22 21:48 | 33.93641 | -118.42297 | 102 ft | 13 kts | 84° |
| 2026-04-22 21:48 | 33.93656 | -118.42149 | 104 ft | 21 kts | 83° |
| 2026-04-22 21:48 | 33.93678 | -118.41935 | 105 ft | 30 kts | 83° |
| 2026-04-22 21:49 | 33.93695 | -118.41759 | 104 ft | 33 kts | 82° |
| 2026-04-22 21:49 | 33.93726 | -118.41474 | 102 ft | 34 kts | 83° |
| 2026-04-22 21:49 | 33.93756 | -118.41183 | 103 ft | 36 kts | 83° |
| 2026-04-22 21:49 | 33.93791 | -118.40878 | 102 ft | 37 kts | 83° |
| 2026-04-22 21:50 | 33.93816 | -118.40571 | 103 ft | 37 kts | 83° |
| 2026-04-22 21:50 | 33.93850 | -118.40258 | 103 ft | 38 kts | 84° |
| 2026-04-22 21:50 | 33.93879 | -118.39945 | 105 ft | 38 kts | 81° |
| 2026-04-22 21:50 | 33.93915 | -118.39624 | 98 ft | 39 kts | 84° |
| 2026-04-22 21:51 | 33.93951 | -118.39310 | 102 ft | 36 kts | 96° |
| 2026-04-22 21:51 | 33.93976 | -118.39003 | 102 ft | 36 kts | 81° |
| 2026-04-22 21:51 | 33.94011 | -118.38695 | 102 ft | 38 kts | 84° |
| 2026-04-22 21:52 | 33.94044 | -118.38358 | 104 ft | 16 kts | 82° |
| 2026-04-22 21:52 | 33.94056 | -118.38216 | 104 ft | 17 kts | 83° |
| 2026-04-22 21:52 | 33.94062 | -118.38166 | 103 ft | 7 kts | 79° |
| 2026-04-22 21:52 | 33.94069 | -118.38104 | 103 ft | 8 kts | 84° |
| 2026-04-22 21:53 | 33.94071 | -118.38054 | 103 ft | 9 kts | 91° |
| 2026-04-22 21:53 | 33.94071 | -118.38047 | 103 ft | 0 kts | 91° |
| 2026-04-22 21:54 | 33.94070 | -118.38041 | 104 ft | 3 kts | 97° |
| 2026-04-22 21:55 | 33.94011 | -118.38016 | 109 ft | 15 kts | 203° |
| 2026-04-22 21:55 | 33.93984 | -118.38071 | 110 ft | 1 kts | 259° |
| 2026-04-22 21:55 | 33.93982 | -118.38086 | 109 ft | 3 kts | 259° |
| 2026-04-22 21:55 | 33.93957 | -118.38308 | 110 ft | 57 kts | 263° |
| 2026-04-22 21:56 | 33.93882 | -118.39024 | 107 ft | 110 kts | 263° |
| 2026-04-22 21:56 | 33.93770 | -118.40124 | 134 ft | 148 kts | 262° |
| 2026-04-22 21:56 | 33.93663 | -118.41420 | 487 ft | 158 kts | 263° |
| 2026-04-22 21:56 | 33.93522 | -118.42732 | 1028 ft | 161 kts | 262° |
| 2026-04-22 21:57 | 33.93377 | -118.44132 | 1574 ft | 175 kts | 262° |
| 2026-04-22 21:57 | 33.93152 | -118.45666 | 1962 ft | 188 kts | 248° |
| 2026-04-22 21:57 | 33.92400 | -118.46974 | 2502 ft | 196 kts | 227° |
| 2026-04-22 21:57 | 33.91320 | -118.48167 | 2697 ft | 225 kts | 225° |
| 2026-04-22 21:58 | 33.89928 | -118.49263 | 3129 ft | 245 kts | 197° |
| 2026-04-22 21:58 | 33.88099 | -118.49566 | 3693 ft | 263 kts | 188° |
| 2026-04-22 21:58 | 33.86282 | -118.49790 | 4405 ft | 269 kts | 188° |
| 2026-04-22 21:58 | 33.84371 | -118.50034 | 4892 ft | 275 kts | 188° |
| 2026-04-22 21:59 | 33.83082 | -118.50205 | 5115 ft | 275 kts | 189° |
| 2026-04-22 21:59 | 33.80438 | -118.50567 | 6080 ft | 280 kts | 189° |
| 2026-04-22 21:59 | 33.78432 | -118.50852 | 6851 ft | 284 kts | 190° |
| 2026-04-22 21:59 | 33.76425 | -118.51140 | 7603 ft | 287 kts | 190° |
| 2026-04-22 22:00 | 33.74433 | -118.51424 | 8367 ft | 288 kts | 190° |
| 2026-04-22 22:00 | 33.72440 | -118.51545 | 9118 ft | 294 kts | 177° |
| 2026-04-22 22:00 | 33.71107 | -118.51201 | 9622 ft | 299 kts | 163° |
| 2026-04-22 22:00 | 33.68739 | -118.49365 | 10412 ft | 316 kts | 134° |
| 2026-04-22 22:01 | 33.67509 | -118.47088 | 10751 ft | 333 kts | 118° |
| 2026-04-22 22:01 | 33.66779 | -118.45359 | 10942 ft | 344 kts | 118° |
| 2026-04-22 22:01 | 33.65654 | -118.42691 | 11199 ft | 361 kts | 118° |
| 2026-04-22 22:01 | 33.64477 | -118.39916 | 11466 ft | 376 kts | 118° |
| 2026-04-22 22:02 | 33.63280 | -118.37108 | 11943 ft | 384 kts | 118° |
| 2026-04-22 22:02 | 33.62041 | -118.34223 | 12511 ft | 388 kts | 119° |
| 2026-04-22 22:02 | 33.60739 | -118.31207 | 13089 ft | 393 kts | 119° |
| 2026-04-22 22:02 | 33.59479 | -118.28289 | 13638 ft | 398 kts | 119° |
| 2026-04-22 22:03 | 33.58183 | -118.25288 | 14174 ft | 402 kts | 119° |
| 2026-04-22 22:03 | 33.56873 | -118.22256 | 14657 ft | 406 kts | 120° |
| 2026-04-22 22:03 | 33.55495 | -118.19078 | 15157 ft | 411 kts | 120° |
| 2026-04-22 22:03 | 33.54011 | -118.15656 | 15686 ft | 415 kts | 120° |
| 2026-04-22 22:04 | 33.52775 | -118.12806 | 16110 ft | 419 kts | 120° |
| 2026-04-22 22:04 | 33.51364 | -118.09533 | 16602 ft | 423 kts | 120° |
| 2026-04-22 22:04 | 33.50020 | -118.06405 | 17072 ft | 427 kts | 120° |
| 2026-04-22 22:04 | 33.48656 | -118.03238 | 17539 ft | 431 kts | 120° |
| 2026-04-22 22:05 | 33.47132 | -118.00115 | 18104 ft | 431 kts | 132° |
| 2026-04-22 22:05 | 33.45870 | -117.98202 | 18409 ft | 428 kts | 137° |
| 2026-04-22 22:05 | 33.43453 | -117.95425 | 18840 ft | 429 kts | 144° |
| 2026-04-22 22:05 | 33.41349 | -117.93208 | 19275 ft | 432 kts | 144° |
| 2026-04-22 22:06 | 33.39052 | -117.90782 | 19791 ft | 434 kts | 144° |
| 2026-04-22 22:06 | 33.36750 | -117.88342 | 20319 ft | 436 kts | 144° |
| 2026-04-22 22:06 | 33.34471 | -117.85924 | 20823 ft | 438 kts | 144° |
| 2026-04-22 22:06 | 33.32171 | -117.83486 | 21291 ft | 441 kts | 144° |
| 2026-04-22 22:07 | 33.29853 | -117.81029 | 21748 ft | 443 kts | 144° |
| 2026-04-22 22:07 | 33.27545 | -117.78583 | 22181 ft | 445 kts | 144° |
| 2026-04-22 22:07 | 33.25219 | -117.76124 | 22602 ft | 447 kts | 144° |
| 2026-04-22 22:07 | 33.22882 | -117.73656 | 23008 ft | 450 kts | 144° |
| 2026-04-22 22:08 | 33.20501 | -117.71146 | 23425 ft | 452 kts | 144° |
| 2026-04-22 22:08 | 33.18109 | -117.68627 | 23808 ft | 454 kts | 144° |
| 2026-04-22 22:08 | 33.15698 | -117.66082 | 24128 ft | 457 kts | 144° |
| 2026-04-22 22:08 | 33.13309 | -117.63498 | 24437 ft | 460 kts | 143° |
| 2026-04-22 22:09 | 33.10957 | -117.60888 | 24730 ft | 463 kts | 143° |
| 2026-04-22 22:09 | 33.08563 | -117.58188 | 25036 ft | 466 kts | 142° |
| 2026-04-22 22:09 | 33.06212 | -117.55524 | 25317 ft | 468 kts | 142° |
| 2026-04-22 22:09 | 33.03697 | -117.52687 | 25608 ft | 471 kts | 143° |
| 2026-04-22 22:10 | 33.01279 | -117.49982 | 25896 ft | 473 kts | 143° |
| 2026-04-22 22:10 | 32.98818 | -117.47248 | 26170 ft | 475 kts | 143° |
| 2026-04-22 22:10 | 32.96370 | -117.44541 | 26444 ft | 478 kts | 143° |
| 2026-04-22 22:10 | 32.93888 | -117.41804 | 26715 ft | 481 kts | 144° |
| 2026-04-22 22:11 | 32.91425 | -117.39088 | 26978 ft | 483 kts | 144° |
| 2026-04-22 22:11 | 32.89694 | -117.37176 | 27161 ft | 485 kts | 144° |
| 2026-04-22 22:11 | 32.87183 | -117.34399 | 27427 ft | 488 kts | 144° |
| 2026-04-22 22:11 | 32.84643 | -117.31589 | 27693 ft | 490 kts | 144° |
| 2026-04-22 22:12 | 32.82066 | -117.28742 | 28065 ft | 490 kts | 144° |
| 2026-04-22 22:12 | 32.79498 | -117.25909 | 28443 ft | 490 kts | 144° |
| 2026-04-22 22:12 | 32.76994 | -117.23149 | 28800 ft | 491 kts | 144° |
| 2026-04-22 22:12 | 32.74394 | -117.20284 | 29178 ft | 491 kts | 144° |
| 2026-04-22 22:13 | 32.71889 | -117.17530 | 29537 ft | 491 kts | 145° |
| 2026-04-22 22:13 | 32.69501 | -117.14908 | 29888 ft | 491 kts | 145° |
| 2026-04-22 22:13 | 32.66831 | -117.11972 | 30262 ft | 493 kts | 143° |
| 2026-04-22 22:13 | 32.64412 | -117.08895 | 30591 ft | 498 kts | 140° |
| 2026-04-22 22:14 | 32.62024 | -117.05758 | 30890 ft | 498 kts | 140° |
| 2026-04-22 22:14 | 32.59804 | -117.02834 | 31176 ft | 498 kts | 140° |
| 2026-04-22 22:14 | 32.57383 | -116.99647 | 31509 ft | 498 kts | 140° |
| 2026-04-22 22:14 | 32.54994 | -116.96510 | 31849 ft | 498 kts | 140° |
| 2026-04-22 22:15 | 32.53357 | -116.94367 | 32064 ft | 498 kts | 140° |
| 2026-04-22 22:15 | 32.50992 | -116.91306 | 32407 ft | 497 kts | 140° |
| 2026-04-22 22:15 | 32.48583 | -116.88232 | 32742 ft | 496 kts | 141° |
| 2026-04-22 22:15 | 32.46085 | -116.85069 | 33073 ft | 495 kts | 141° |
| 2026-04-22 22:16 | 32.43679 | -116.82031 | 33382 ft | 495 kts | 141° |
| 2026-04-22 22:16 | 32.41112 | -116.78790 | 33737 ft | 495 kts | 141° |
| 2026-04-22 22:16 | 32.38773 | -116.75817 | 34043 ft | 495 kts | 140° |
| 2026-04-22 22:16 | 32.36514 | -116.72916 | 34302 ft | 495 kts | 141° |
| 2026-04-22 22:17 | 32.34087 | -116.69828 | 34565 ft | 493 kts | 141° |
| 2026-04-22 22:17 | 32.31978 | -116.67163 | 34836 ft | 491 kts | 141° |
| 2026-04-22 22:17 | 32.29566 | -116.64061 | 35058 ft | 490 kts | 140° |
| 2026-04-22 22:18 | 32.25632 | -116.59071 | 35150 ft | 495 kts | 141° |
| 2026-04-22 22:18 | 32.20749 | -116.52990 | 35148 ft | 504 kts | 141° |
| 2026-04-22 22:19 | 32.15819 | -116.46818 | 35145 ft | 507 kts | 141° |
| 2026-04-22 22:19 | 32.10892 | -116.40599 | 35144 ft | 506 kts | 141° |
| 2026-04-22 22:20 | 32.06145 | -116.34618 | 35149 ft | 506 kts | 140° |
| 2026-04-22 22:20 | 32.01305 | -116.28531 | 35143 ft | 505 kts | 140° |
| 2026-04-22 22:21 | 31.96456 | -116.22461 | 35147 ft | 505 kts | 140° |
| 2026-04-22 22:21 | 31.91616 | -116.16413 | 35149 ft | 504 kts | 140° |
| 2026-04-22 22:22 | 31.86739 | -116.10333 | 35140 ft | 503 kts | 140° |
| 2026-04-22 22:22 | 31.82716 | -116.05318 | 35136 ft | 503 kts | 140° |
| 2026-04-22 22:23 | 31.77830 | -115.99236 | 35123 ft | 502 kts | 140° |
| 2026-04-22 22:23 | 31.73077 | -115.93329 | 35116 ft | 501 kts | 140° |
| 2026-04-22 22:24 | 31.68221 | -115.87297 | 35110 ft | 500 kts | 140° |
| 2026-04-22 22:24 | 31.63438 | -115.81371 | 35106 ft | 500 kts | 140° |
| 2026-04-22 22:25 | 31.58578 | -115.75366 | 35099 ft | 499 kts | 140° |
| 2026-04-22 22:25 | 31.53770 | -115.69443 | 35098 ft | 498 kts | 140° |
| 2026-04-22 22:26 | 31.48999 | -115.63574 | 35086 ft | 497 kts | 140° |
| 2026-04-22 22:26 | 31.44138 | -115.57596 | 35085 ft | 496 kts | 140° |
| 2026-04-22 22:27 | 31.39479 | -115.51867 | 35081 ft | 495 kts | 140° |
| 2026-04-22 22:27 | 31.34644 | -115.45923 | 35082 ft | 493 kts | 140° |
| 2026-04-22 22:28 | 31.30079 | -115.40341 | 35067 ft | 493 kts | 140° |
| 2026-04-22 22:28 | 31.25184 | -115.34368 | 35057 ft | 492 kts | 140° |
| 2026-04-22 22:29 | 31.21329 | -115.29657 | 35042 ft | 492 kts | 140° |
| 2026-04-22 22:29 | 31.16561 | -115.23847 | 35036 ft | 492 kts | 140° |
| 2026-04-22 22:30 | 31.11785 | -115.18024 | 35036 ft | 493 kts | 140° |
| 2026-04-22 22:30 | 31.07044 | -115.12254 | 35038 ft | 493 kts | 140° |
| 2026-04-22 22:31 | 31.02243 | -115.06435 | 35035 ft | 493 kts | 140° |
| 2026-04-22 22:31 | 30.97544 | -115.00738 | 35036 ft | 492 kts | 141° |
| 2026-04-22 22:32 | 30.92754 | -114.94954 | 35021 ft | 493 kts | 141° |
| 2026-04-22 22:32 | 30.87935 | -114.89147 | 35014 ft | 492 kts | 140° |
| 2026-04-22 22:33 | 30.83112 | -114.83314 | 35007 ft | 492 kts | 140° |
| 2026-04-22 22:33 | 30.78361 | -114.77583 | 35007 ft | 491 kts | 140° |
| 2026-04-22 22:34 | 30.73581 | -114.71838 | 35014 ft | 491 kts | 140° |
| 2026-04-22 22:34 | 30.68796 | -114.66099 | 35012 ft | 490 kts | 140° |
| 2026-04-22 22:35 | 30.63994 | -114.60348 | 35005 ft | 491 kts | 140° |
| 2026-04-22 22:35 | 30.59198 | -114.54602 | 34999 ft | 491 kts | 140° |
| 2026-04-22 22:36 | 30.54383 | -114.48831 | 34993 ft | 491 kts | 140° |
| 2026-04-22 22:36 | 30.49559 | -114.43084 | 34989 ft | 491 kts | 140° |
| 2026-04-22 22:37 | 30.45531 | -114.38291 | 34991 ft | 491 kts | 140° |
| 2026-04-22 22:37 | 30.40739 | -114.32584 | 35001 ft | 491 kts | 140° |
| 2026-04-22 22:38 | 30.35977 | -114.26919 | 35003 ft | 491 kts | 140° |
| 2026-04-22 22:38 | 30.31217 | -114.21267 | 35002 ft | 491 kts | 140° |
| 2026-04-22 22:39 | 30.26439 | -114.15607 | 35008 ft | 491 kts | 140° |
| 2026-04-22 22:39 | 30.21635 | -114.09926 | 35006 ft | 491 kts | 140° |
| 2026-04-22 22:40 | 30.16903 | -114.04329 | 35001 ft | 490 kts | 140° |
| 2026-04-22 22:40 | 30.12120 | -113.98694 | 35004 ft | 491 kts | 140° |
| 2026-04-22 22:41 | 30.07308 | -113.93029 | 35010 ft | 491 kts | 140° |
| 2026-04-22 22:41 | 30.02536 | -113.87406 | 35014 ft | 490 kts | 140° |
| 2026-04-22 22:42 | 29.97728 | -113.81759 | 35012 ft | 490 kts | 140° |
| 2026-04-22 22:42 | 29.92947 | -113.76168 | 35009 ft | 489 kts | 140° |
| 2026-04-22 22:43 | 29.88179 | -113.70577 | 35000 ft | 489 kts | 140° |
| 2026-04-22 22:43 | 29.83427 | -113.65015 | 35005 ft | 489 kts | 140° |
| 2026-04-22 22:44 | 29.78599 | -113.59360 | 35012 ft | 489 kts | 139° |
| 2026-04-22 22:44 | 29.73929 | -113.53432 | 35022 ft | 491 kts | 136° |
| 2026-04-22 22:45 | 29.69442 | -113.47443 | 35020 ft | 491 kts | 135° |
| 2026-04-22 22:45 | 29.64948 | -113.41540 | 35021 ft | 490 kts | 136° |
| 2026-04-22 22:46 | 29.60309 | -113.35584 | 35019 ft | 489 kts | 137° |
| 2026-04-22 22:46 | 29.55748 | -113.29785 | 35013 ft | 489 kts | 137° |
| 2026-04-22 22:47 | 29.51172 | -113.23943 | 35011 ft | 489 kts | 136° |
| 2026-04-22 22:47 | 29.46617 | -113.18088 | 35008 ft | 489 kts | 136° |
| 2026-04-22 22:48 | 29.42025 | -113.12191 | 34999 ft | 489 kts | 136° |
| 2026-04-22 22:48 | 29.37448 | -113.06359 | 35002 ft | 488 kts | 136° |
| 2026-04-22 22:49 | 29.32917 | -113.00598 | 35005 ft | 489 kts | 136° |
| 2026-04-22 22:49 | 29.29061 | -112.95687 | 35009 ft | 489 kts | 136° |
| 2026-04-22 22:50 | 29.24479 | -112.89854 | 35012 ft | 488 kts | 136° |
| 2026-04-22 22:50 | 29.19905 | -112.84046 | 35012 ft | 488 kts | 136° |
| 2026-04-22 22:51 | 29.15351 | -112.78275 | 35012 ft | 488 kts | 136° |
| 2026-04-22 22:51 | 29.10711 | -112.72407 | 35007 ft | 488 kts | 136° |
| 2026-04-22 22:52 | 29.06128 | -112.66616 | 35006 ft | 488 kts | 136° |
| 2026-04-22 22:52 | 29.01389 | -112.60638 | 35004 ft | 488 kts | 136° |
| 2026-04-22 22:53 | 28.96825 | -112.54897 | 34981 ft | 491 kts | 138° |
| 2026-04-22 22:53 | 28.92083 | -112.48936 | 34994 ft | 503 kts | 138° |
| 2026-04-22 22:54 | 28.87346 | -112.42980 | 34990 ft | 504 kts | 138° |
| 2026-04-22 22:54 | 28.82558 | -112.36955 | 34984 ft | 504 kts | 138° |
| 2026-04-22 22:55 | 28.78573 | -112.31954 | 34982 ft | 504 kts | 138° |
| 2026-04-22 22:55 | 28.71419 | -112.23018 | 34985 ft | 504 kts | 138° |
| 2026-04-22 22:56 | 28.66659 | -112.17071 | 34982 ft | 504 kts | 138° |
| 2026-04-22 22:56 | 28.61897 | -112.11140 | 34978 ft | 504 kts | 138° |
| 2026-04-22 22:57 | 28.57131 | -112.05207 | 34976 ft | 504 kts | 137° |
| 2026-04-22 22:57 | 28.52304 | -111.99196 | 34974 ft | 504 kts | 137° |
| 2026-04-22 22:58 | 28.47571 | -111.93321 | 34978 ft | 504 kts | 138° |
| 2026-04-22 22:58 | 28.42800 | -111.87415 | 34983 ft | 504 kts | 138° |
| 2026-04-22 22:59 | 28.37972 | -111.81438 | 34981 ft | 504 kts | 137° |
| 2026-04-22 22:59 | 28.33205 | -111.75528 | 34969 ft | 484 kts | 136° |
| 2026-04-22 23:00 | 28.28550 | -111.69788 | 34982 ft | 487 kts | 136° |
| 2026-04-22 23:00 | 28.23944 | -111.64124 | 34982 ft | 488 kts | 136° |
| 2026-04-22 23:01 | 28.19350 | -111.58465 | 34979 ft | 488 kts | 136° |
| 2026-04-22 23:01 | 28.15439 | -111.53645 | 34986 ft | 488 kts | 136° |
| 2026-04-22 23:02 | 28.10838 | -111.47987 | 34981 ft | 488 kts | 136° |
| 2026-04-22 23:02 | 28.06165 | -111.42263 | 34978 ft | 488 kts | 137° |
| 2026-04-22 23:03 | 28.01548 | -111.36622 | 34983 ft | 489 kts | 137° |
| 2026-04-22 23:03 | 27.96867 | -111.30904 | 34980 ft | 489 kts | 136° |
| 2026-04-22 23:04 | 27.92125 | -111.25105 | 34988 ft | 489 kts | 137° |
| 2026-04-22 23:04 | 27.87497 | -111.19460 | 34988 ft | 489 kts | 137° |
| 2026-04-22 23:05 | 27.85144 | -111.16593 | 34866 ft | 490 kts | 137° |
| 2026-04-22 23:05 | 27.82788 | -111.13727 | 35050 ft | 492 kts | 137° |
| 2026-04-22 23:05 | 27.78119 | -111.08041 | 34996 ft | 491 kts | 137° |
| 2026-04-22 23:06 | 27.73469 | -111.02392 | 34992 ft | 491 kts | 137° |
| 2026-04-22 23:06 | 27.68805 | -110.96747 | 34982 ft | 492 kts | 137° |
| 2026-04-22 23:07 | 27.64108 | -110.91070 | 34984 ft | 492 kts | 137° |
| 2026-04-22 23:07 | 27.59438 | -110.85418 | 34995 ft | 493 kts | 137° |
| 2026-04-22 23:08 | 27.54767 | -110.79755 | 34999 ft | 493 kts | 137° |
| 2026-04-22 23:08 | 27.50029 | -110.74029 | 34998 ft | 494 kts | 137° |
| 2026-04-22 23:09 | 27.45300 | -110.68339 | 34990 ft | 495 kts | 137° |
| 2026-04-22 23:09 | 27.41181 | -110.63391 | 34998 ft | 494 kts | 137° |
| 2026-04-22 23:10 | 27.36398 | -110.57647 | 35000 ft | 495 kts | 137° |
| 2026-04-22 23:10 | 27.31666 | -110.51962 | 35009 ft | 494 kts | 137° |
| 2026-04-22 23:11 | 27.26952 | -110.46319 | 35005 ft | 495 kts | 137° |
| 2026-04-22 23:11 | 27.22175 | -110.40607 | 34996 ft | 495 kts | 137° |
| 2026-04-22 23:12 | 27.17269 | -110.34741 | 34988 ft | 495 kts | 137° |
| 2026-04-22 23:12 | 27.12495 | -110.29039 | 34984 ft | 495 kts | 137° |
| 2026-04-22 23:13 | 27.07697 | -110.23320 | 34971 ft | 496 kts | 137° |
| 2026-04-22 23:13 | 27.02934 | -110.17651 | 34970 ft | 496 kts | 137° |
| 2026-04-22 23:14 | 26.98875 | -110.12827 | 34965 ft | 496 kts | 137° |
| 2026-04-22 23:14 | 26.94084 | -110.07137 | 34964 ft | 496 kts | 137° |
| 2026-04-22 23:15 | 26.89310 | -110.01468 | 34962 ft | 496 kts | 137° |
| 2026-04-22 23:15 | 26.84473 | -109.95732 | 34966 ft | 496 kts | 137° |
| 2026-04-22 23:16 | 26.79627 | -109.90002 | 34965 ft | 496 kts | 137° |
| 2026-04-22 23:16 | 26.74770 | -109.84269 | 34970 ft | 496 kts | 137° |
| 2026-04-22 23:17 | 26.69943 | -109.78576 | 34969 ft | 496 kts | 137° |
| 2026-04-22 23:17 | 26.65022 | -109.72783 | 34873 ft | 498 kts | 137° |
| 2026-04-22 23:18 | 26.62634 | -109.69970 | 34979 ft | 501 kts | 137° |
| 2026-04-22 23:18 | 26.60199 | -109.67105 | 34973 ft | 502 kts | 137° |
| 2026-04-22 23:18 | 26.56102 | -109.62282 | 34974 ft | 502 kts | 137° |
| 2026-04-22 23:19 | 26.51125 | -109.56435 | 34984 ft | 503 kts | 137° |
| 2026-04-22 23:19 | 26.46202 | -109.50665 | 34987 ft | 503 kts | 137° |
| 2026-04-22 23:20 | 26.41277 | -109.44898 | 34991 ft | 504 kts | 137° |
| 2026-04-22 23:20 | 26.36459 | -109.39265 | 35003 ft | 504 kts | 137° |
| 2026-04-22 23:21 | 26.31448 | -109.33421 | 34992 ft | 504 kts | 137° |
| 2026-04-22 23:21 | 26.26587 | -109.27762 | 34988 ft | 504 kts | 137° |
| 2026-04-22 23:22 | 26.22536 | -109.23048 | 34994 ft | 504 kts | 137° |
| 2026-04-22 23:22 | 26.17708 | -109.17425 | 34989 ft | 504 kts | 137° |
| 2026-04-22 23:23 | 26.12844 | -109.11761 | 34991 ft | 505 kts | 137° |
| 2026-04-22 23:23 | 26.07855 | -109.05978 | 34982 ft | 504 kts | 137° |
| 2026-04-22 23:24 | 26.03116 | -109.00503 | 34980 ft | 504 kts | 136° |
| 2026-04-22 23:24 | 25.97801 | -108.95066 | 34975 ft | 504 kts | 137° |
| 2026-04-22 23:25 | 25.93021 | -108.89208 | 34985 ft | 506 kts | 134° |
| 2026-04-22 23:25 | 25.88322 | -108.83321 | 34973 ft | 506 kts | 135° |
| 2026-04-22 23:26 | 25.83414 | -108.77578 | 34976 ft | 505 kts | 137° |
| 2026-04-22 23:26 | 25.79348 | -108.72996 | 34975 ft | 505 kts | 137° |
| 2026-04-22 23:27 | 25.74514 | -108.67525 | 34974 ft | 505 kts | 137° |
| 2026-04-22 23:27 | 25.69714 | -108.62020 | 34979 ft | 504 kts | 136° |
| 2026-04-22 23:28 | 25.64653 | -108.56178 | 34982 ft | 504 kts | 136° |
| 2026-04-22 23:28 | 25.60165 | -108.51058 | 34992 ft | 502 kts | 138° |
| 2026-04-22 23:29 | 25.55083 | -108.45313 | 34981 ft | 504 kts | 136° |
| 2026-04-22 23:29 | 25.50944 | -108.40528 | 34984 ft | 504 kts | 136° |
| 2026-04-22 23:30 | 25.46138 | -108.34992 | 34992 ft | 503 kts | 136° |
| 2026-04-22 23:30 | 25.41425 | -108.29618 | 34997 ft | 502 kts | 137° |
| 2026-04-22 23:31 | 25.36571 | -108.24117 | 34998 ft | 501 kts | 137° |
| 2026-04-22 23:31 | 25.31602 | -108.18461 | 34994 ft | 501 kts | 136° |
| 2026-04-22 23:32 | 25.26683 | -108.12863 | 34990 ft | 501 kts | 137° |
| 2026-04-22 23:32 | 25.21952 | -108.07487 | 34999 ft | 500 kts | 137° |
| 2026-04-22 23:33 | 25.17083 | -108.01960 | 34999 ft | 500 kts | 136° |
| 2026-04-22 23:33 | 25.12960 | -107.97286 | 34995 ft | 499 kts | 136° |
| 2026-04-22 23:34 | 25.08064 | -107.91754 | 34998 ft | 499 kts | 136° |
| 2026-04-22 23:34 | 25.03064 | -107.86114 | 35000 ft | 498 kts | 136° |
| 2026-04-22 23:35 | 24.98127 | -107.80555 | 35004 ft | 496 kts | 136° |
| 2026-04-22 23:35 | 24.93222 | -107.75027 | 35001 ft | 497 kts | 136° |
| 2026-04-22 23:36 | 24.88275 | -107.69458 | 34989 ft | 497 kts | 136° |
| 2026-04-22 23:36 | 24.83313 | -107.63877 | 34995 ft | 497 kts | 136° |
| 2026-04-22 23:37 | 24.79190 | -107.59248 | 34997 ft | 497 kts | 136° |
| 2026-04-22 23:37 | 24.74321 | -107.53795 | 35000 ft | 496 kts | 136° |
| 2026-04-22 23:38 | 24.69378 | -107.48262 | 34992 ft | 496 kts | 136° |
| 2026-04-22 23:38 | 24.64442 | -107.42730 | 34997 ft | 497 kts | 136° |
| 2026-04-22 23:39 | 24.59589 | -107.37303 | 34992 ft | 497 kts | 136° |
| 2026-04-22 23:39 | 24.54485 | -107.31606 | 34993 ft | 498 kts | 136° |
| 2026-04-22 23:40 | 24.49591 | -107.26148 | 34990 ft | 498 kts | 136° |
| 2026-04-22 23:40 | 24.45412 | -107.21499 | 34991 ft | 498 kts | 136° |
| 2026-04-22 23:41 | 24.40561 | -107.16099 | 34989 ft | 498 kts | 136° |
| 2026-04-22 23:41 | 24.35599 | -107.10577 | 34997 ft | 498 kts | 136° |
| 2026-04-22 23:42 | 24.30628 | -107.05067 | 34996 ft | 498 kts | 136° |
| 2026-04-22 23:42 | 24.25519 | -106.99409 | 34994 ft | 498 kts | 136° |
| 2026-04-22 23:43 | 24.20552 | -106.93924 | 34990 ft | 498 kts | 136° |
| 2026-04-22 23:43 | 24.16222 | -106.89133 | 34991 ft | 499 kts | 136° |
| 2026-04-22 23:44 | 24.11241 | -106.83625 | 34975 ft | 500 kts | 136° |
| 2026-04-22 23:44 | 24.06263 | -106.78136 | 34971 ft | 500 kts | 136° |
| 2026-04-22 23:45 | 24.01174 | -106.72526 | 34989 ft | 500 kts | 136° |
| 2026-04-22 23:45 | 23.96787 | -106.67749 | 34990 ft | 500 kts | 136° |
| 2026-04-22 23:46 | 23.92451 | -106.62963 | 34988 ft | 501 kts | 136° |
| 2026-04-22 23:46 | 23.87527 | -106.57511 | 35000 ft | 501 kts | 136° |
| 2026-04-22 23:47 | 23.82462 | -106.51945 | 34996 ft | 501 kts | 136° |
| 2026-04-22 23:47 | 23.77470 | -106.46489 | 34998 ft | 501 kts | 136° |
| 2026-04-22 23:48 | 23.72506 | -106.41063 | 34998 ft | 500 kts | 136° |
| 2026-04-22 23:48 | 23.67511 | -106.35597 | 34995 ft | 501 kts | 136° |
| 2026-04-22 23:49 | 23.62309 | -106.29910 | 35001 ft | 500 kts | 136° |
| 2026-04-22 23:49 | 23.58089 | -106.25296 | 34996 ft | 501 kts | 136° |
| 2026-04-22 23:50 | 23.52844 | -106.19579 | 34997 ft | 501 kts | 136° |
| 2026-04-22 23:50 | 23.47770 | -106.14061 | 34999 ft | 501 kts | 136° |
| 2026-04-22 23:51 | 23.42781 | -106.08644 | 35002 ft | 501 kts | 136° |
| 2026-04-22 23:51 | 23.38497 | -106.03994 | 35000 ft | 501 kts | 136° |
| 2026-04-22 23:52 | 23.33880 | -105.98978 | 35001 ft | 501 kts | 136° |
| 2026-04-22 23:52 | 23.28998 | -105.93684 | 34998 ft | 501 kts | 136° |
| 2026-04-22 23:53 | 23.23985 | -105.88250 | 34997 ft | 501 kts | 136° |
| 2026-04-22 23:53 | 23.19002 | -105.82861 | 34996 ft | 501 kts | 136° |
| 2026-04-22 23:54 | 23.13917 | -105.77376 | 34988 ft | 503 kts | 136° |
| 2026-04-22 23:54 | 23.08893 | -105.71958 | 34993 ft | 502 kts | 136° |
| 2026-04-22 23:55 | 23.03871 | -105.66543 | 34990 ft | 501 kts | 136° |
| 2026-04-22 23:55 | 22.98892 | -105.61178 | 34994 ft | 501 kts | 136° |
| 2026-04-22 23:56 | 22.93871 | -105.55781 | 34994 ft | 501 kts | 136° |
| 2026-04-22 23:56 | 22.89683 | -105.51286 | 34985 ft | 501 kts | 136° |
| 2026-04-22 23:57 | 22.84635 | -105.45866 | 34989 ft | 501 kts | 136° |
| 2026-04-22 23:57 | 22.79612 | -105.40477 | 34996 ft | 501 kts | 136° |
| 2026-04-22 23:58 | 22.74618 | -105.35135 | 34996 ft | 501 kts | 136° |
| 2026-04-22 23:58 | 22.69630 | -105.29807 | 35001 ft | 501 kts | 136° |
| 2026-04-22 23:59 | 22.64705 | -105.24537 | 35006 ft | 501 kts | 136° |
| 2026-04-22 23:59 | 22.59786 | -105.19277 | 35009 ft | 501 kts | 136° |
| 2026-04-23 00:00 | 22.53159 | -105.12208 | 35009 ft | 501 kts | 136° |
| 2026-04-23 00:01 | 22.47738 | -105.06442 | 35014 ft | 501 kts | 136° |
| 2026-04-23 00:01 | 22.43728 | -105.01900 | 35016 ft | 501 kts | 128° |
| 2026-04-23 00:02 | 22.39769 | -104.95397 | 35007 ft | 502 kts | 122° |
| 2026-04-23 00:02 | 22.35968 | -104.88911 | 35017 ft | 502 kts | 122° |
| 2026-04-23 00:03 | 22.32233 | -104.82573 | 35007 ft | 502 kts | 122° |
| 2026-04-23 00:03 | 22.28470 | -104.76211 | 35011 ft | 502 kts | 122° |
| 2026-04-23 00:04 | 22.24870 | -104.70123 | 35016 ft | 501 kts | 122° |
| 2026-04-23 00:04 | 22.21136 | -104.63755 | 35014 ft | 502 kts | 122° |
| 2026-04-23 00:05 | 22.17448 | -104.57487 | 35012 ft | 501 kts | 122° |
| 2026-04-23 00:05 | 22.13779 | -104.51295 | 35001 ft | 502 kts | 122° |
| 2026-04-23 00:06 | 22.10508 | -104.45779 | 35005 ft | 501 kts | 122° |
| 2026-04-23 00:06 | 22.09114 | -104.43041 | 34980 ft | 497 kts | 111° |
| 2026-04-23 00:06 | 22.07700 | -104.39547 | 34969 ft | 500 kts | 117° |
| 2026-04-23 00:07 | 22.03848 | -104.33273 | 34992 ft | 501 kts | 127° |
| 2026-04-23 00:07 | 21.99532 | -104.27254 | 35008 ft | 501 kts | 126° |
| 2026-04-23 00:08 | 21.95646 | -104.21156 | 35004 ft | 500 kts | 122° |
| 2026-04-23 00:08 | 21.92064 | -104.14921 | 35001 ft | 500 kts | 120° |
| 2026-04-23 00:09 | 21.88535 | -104.08779 | 35007 ft | 499 kts | 121° |
| 2026-04-23 00:09 | 21.85473 | -104.03596 | 35008 ft | 499 kts | 122° |
| 2026-04-23 00:10 | 21.81711 | -103.97340 | 34988 ft | 490 kts | 122° |
| 2026-04-23 00:10 | 21.78432 | -103.91781 | 34983 ft | 490 kts | 121° |
| 2026-04-23 00:11 | 21.74767 | -103.85649 | 34983 ft | 491 kts | 122° |
| 2026-04-23 00:11 | 21.70984 | -103.79435 | 34980 ft | 490 kts | 122° |
| 2026-04-23 00:11 | 21.69105 | -103.76332 | 34647 ft | 490 kts | 122° |
| 2026-04-23 00:12 | 21.67210 | -103.73227 | 33409 ft | 504 kts | 125° |
| 2026-04-23 00:12 | 21.64903 | -103.70335 | 32133 ft | 514 kts | 137° |
| 2026-04-23 00:12 | 21.62102 | -103.67925 | 31043 ft | 518 kts | 148° |
| 2026-04-23 00:12 | 21.58882 | -103.66113 | 30218 ft | 514 kts | 160° |
| 2026-04-23 00:13 | 21.55562 | -103.64926 | 29446 ft | 509 kts | 165° |
| 2026-04-23 00:13 | 21.52099 | -103.63786 | 28714 ft | 503 kts | 165° |
| 2026-04-23 00:13 | 21.48727 | -103.62671 | 28051 ft | 497 kts | 165° |
| 2026-04-23 00:13 | 21.45356 | -103.61553 | 27403 ft | 491 kts | 165° |
| 2026-04-23 00:14 | 21.42082 | -103.60469 | 26762 ft | 485 kts | 165° |
| 2026-04-23 00:14 | 21.38859 | -103.59402 | 26150 ft | 479 kts | 165° |
| 2026-04-23 00:14 | 21.35767 | -103.58155 | 25566 ft | 475 kts | 154° |
| 2026-04-23 00:14 | 21.32964 | -103.56236 | 25003 ft | 472 kts | 141° |
| 2026-04-23 00:15 | 21.30700 | -103.53814 | 24455 ft | 468 kts | 128° |
| 2026-04-23 00:15 | 21.29435 | -103.51880 | 24072 ft | 464 kts | 120° |
| 2026-04-23 00:15 | 21.27786 | -103.48799 | 23467 ft | 460 kts | 120° |
| 2026-04-23 00:15 | 21.26238 | -103.45884 | 22813 ft | 457 kts | 120° |
| 2026-04-23 00:16 | 21.24671 | -103.42947 | 22161 ft | 453 kts | 120° |
| 2026-04-23 00:16 | 21.23085 | -103.39991 | 21549 ft | 449 kts | 120° |
| 2026-04-23 00:16 | 21.21494 | -103.37028 | 20988 ft | 444 kts | 120° |
| 2026-04-23 00:16 | 21.20052 | -103.34329 | 20486 ft | 440 kts | 120° |
| 2026-04-23 00:17 | 21.18589 | -103.31590 | 20009 ft | 437 kts | 120° |
| 2026-04-23 00:17 | 21.17041 | -103.28705 | 19518 ft | 433 kts | 120° |
| 2026-04-23 00:17 | 21.15576 | -103.25973 | 19059 ft | 429 kts | 120° |
| 2026-04-23 00:17 | 21.14087 | -103.23194 | 18556 ft | 425 kts | 120° |
| 2026-04-23 00:18 | 21.12668 | -103.20588 | 18034 ft | 423 kts | 121° |
| 2026-04-23 00:18 | 21.11095 | -103.17713 | 17433 ft | 419 kts | 122° |
| 2026-04-23 00:18 | 21.09417 | -103.15263 | 16892 ft | 414 kts | 134° |
| 2026-04-23 00:18 | 21.07362 | -103.13036 | 16367 ft | 409 kts | 136° |
| 2026-04-23 00:19 | 21.05286 | -103.10847 | 15820 ft | 406 kts | 136° |
| 2026-04-23 00:19 | 21.03290 | -103.08756 | 15279 ft | 402 kts | 136° |
| 2026-04-23 00:19 | 21.01886 | -103.07290 | 14892 ft | 400 kts | 136° |
| 2026-04-23 00:19 | 20.99939 | -103.05258 | 14377 ft | 397 kts | 136° |
| 2026-04-23 00:20 | 20.98015 | -103.03250 | 14038 ft | 388 kts | 136° |
| 2026-04-23 00:20 | 20.96095 | -103.01237 | 13928 ft | 372 kts | 136° |
| 2026-04-23 00:20 | 20.94247 | -102.99296 | 13784 ft | 367 kts | 136° |
| 2026-04-23 00:20 | 20.92410 | -102.97369 | 13788 ft | 367 kts | 136° |
| 2026-04-23 00:21 | 20.90542 | -102.95410 | 13798 ft | 366 kts | 136° |
| 2026-04-23 00:21 | 20.88696 | -102.93477 | 13810 ft | 367 kts | 136° |
| 2026-04-23 00:21 | 20.86891 | -102.91628 | 13798 ft | 367 kts | 136° |
| 2026-04-23 00:21 | 20.85083 | -102.89747 | 13802 ft | 367 kts | 136° |
| 2026-04-23 00:22 | 20.83327 | -102.87897 | 13796 ft | 368 kts | 135° |
| 2026-04-23 00:22 | 20.81484 | -102.85955 | 13796 ft | 368 kts | 136° |
| 2026-04-23 00:22 | 20.79581 | -102.84083 | 13800 ft | 367 kts | 145° |
| 2026-04-23 00:22 | 20.77364 | -102.82846 | 13791 ft | 366 kts | 163° |
| 2026-04-23 00:23 | 20.74897 | -102.82399 | 13565 ft | 360 kts | 183° |
| 2026-04-23 00:23 | 20.72447 | -102.82833 | 13310 ft | 355 kts | 201° |
| 2026-04-23 00:23 | 20.70184 | -102.84000 | 13054 ft | 350 kts | 212° |
| 2026-04-23 00:23 | 20.68028 | -102.85265 | 12800 ft | 348 kts | 211° |
| 2026-04-23 00:24 | 20.65882 | -102.86519 | 12547 ft | 346 kts | 211° |
| 2026-04-23 00:24 | 20.64509 | -102.87321 | 12386 ft | 345 kts | 211° |
| 2026-04-23 00:24 | 20.62351 | -102.88585 | 12134 ft | 344 kts | 211° |
| 2026-04-23 00:24 | 20.60206 | -102.89836 | 11882 ft | 343 kts | 211° |
| 2026-04-23 00:25 | 20.58085 | -102.91068 | 11631 ft | 340 kts | 211° |
| 2026-04-23 00:25 | 20.56002 | -102.92280 | 11219 ft | 335 kts | 211° |
| 2026-04-23 00:25 | 20.53960 | -102.93467 | 10770 ft | 333 kts | 211° |
| 2026-04-23 00:25 | 20.51934 | -102.94647 | 10326 ft | 331 kts | 211° |
| 2026-04-23 00:26 | 20.49929 | -102.95816 | 10123 ft | 321 kts | 211° |
| 2026-04-23 00:26 | 20.48007 | -102.96934 | 10024 ft | 310 kts | 211° |
| 2026-04-23 00:26 | 20.46149 | -102.98016 | 9901 ft | 299 kts | 212° |
| 2026-04-23 00:26 | 20.44489 | -102.99260 | 9711 ft | 288 kts | 226° |
| 2026-04-23 00:27 | 20.43205 | -103.00875 | 9316 ft | 284 kts | 240° |
| 2026-04-23 00:27 | 20.42370 | -103.02753 | 8937 ft | 270 kts | 255° |
| 2026-04-23 00:27 | 20.42022 | -103.04667 | 8609 ft | 257 kts | 268° |
| 2026-04-23 00:27 | 20.42106 | -103.06483 | 8548 ft | 233 kts | 280° |
| 2026-04-23 00:28 | 20.42504 | -103.08091 | 8555 ft | 214 kts | 291° |
| 2026-04-23 00:28 | 20.43077 | -103.09489 | 8454 ft | 200 kts | 294° |
| 2026-04-23 00:28 | 20.43639 | -103.10819 | 8246 ft | 195 kts | 294° |
| 2026-04-23 00:28 | 20.44188 | -103.12121 | 8033 ft | 190 kts | 294° |
| 2026-04-23 00:29 | 20.44708 | -103.13353 | 7838 ft | 168 kts | 294° |
| 2026-04-23 00:29 | 20.45163 | -103.14433 | 7666 ft | 148 kts | 294° |
| 2026-04-23 00:29 | 20.45582 | -103.15426 | 7507 ft | 147 kts | 294° |
| 2026-04-23 00:29 | 20.45999 | -103.16417 | 7339 ft | 146 kts | 294° |
| 2026-04-23 00:30 | 20.46415 | -103.17402 | 7179 ft | 146 kts | 294° |
| 2026-04-23 00:30 | 20.46836 | -103.18402 | 7017 ft | 145 kts | 294° |
| 2026-04-23 00:30 | 20.47245 | -103.19374 | 6865 ft | 145 kts | 294° |
| 2026-04-23 00:30 | 20.47660 | -103.20358 | 6704 ft | 145 kts | 294° |
| 2026-04-23 00:31 | 20.48070 | -103.21333 | 6555 ft | 145 kts | 294° |
| 2026-04-23 00:31 | 20.48484 | -103.22316 | 6389 ft | 145 kts | 294° |
| 2026-04-23 00:31 | 20.48904 | -103.23313 | 6250 ft | 145 kts | 294° |
| 2026-04-23 00:31 | 20.49311 | -103.24279 | 6112 ft | 146 kts | 295° |
| 2026-04-23 00:32 | 20.49725 | -103.25264 | 5942 ft | 145 kts | 295° |
| 2026-04-23 00:32 | 20.50137 | -103.26245 | 5747 ft | 145 kts | 295° |
| 2026-04-23 00:32 | 20.50538 | -103.27200 | 5541 ft | 144 kts | 295° |
| 2026-04-23 00:32 | 20.50912 | -103.28094 | 5332 ft | 142 kts | 300° |
| 2026-04-23 00:33 | 20.51340 | -103.29083 | 5105 ft | 141 kts | 296° |
| 2026-04-23 00:33 | 20.51727 | -103.30019 | 5028 ft | 122 kts | 297° |
| 2026-04-23 00:33 | 20.52008 | -103.30676 | 5029 ft | 65 kts | 298° |
| 2026-04-23 00:33 | 20.52198 | -103.30879 | 5030 ft | 29 kts | 323° |
| 2026-04-23 00:34 | 20.52358 | -103.30995 | 5027 ft | 24 kts | 356° |
| 2026-04-23 00:34 | 20.52491 | -103.30918 | 5027 ft | 22 kts | 41° |
| 2026-04-23 00:34 | 20.52490 | -103.30788 | 5029 ft | 17 kts | 91° |
| 2026-04-23 00:34 | 20.52515 | -103.30665 | 5027 ft | 17 kts | 75° |
| 2026-04-23 00:35 | 20.52542 | -103.30555 | 5028 ft | 15 kts | 71° |
| 2026-04-23 00:35 | 20.52559 | -103.30516 | 5029 ft | 0 kts | 62° |
| 2026-04-23 00:35 | 20.52559 | -103.30515 | 5029 ft | 0 kts | 62° |
| 2026-04-23 00:36 | 20.52559 | -103.30516 | 5029 ft | 0 kts | 62° |